Flight Track Log - Related Links

Times and Time Zones

All times are in EDT time to prevent confusion due to time zone crossing. See the UAL395 flight status page for this flight to view local times or setup timezone preferences in your user account.

Time Position Orientation Groundspeed Altitude Reporting Facility
EDT Latitude Longitude Course Direction KTS MPH feet Rate Location/Type
Sat 08:03:24 PM 42.0167 -87.9000 261° West 157 181 1,800  Level Chicago TRACON
Sat 08:04:18 PM 42.0500 -87.9333 323° Northwest 225 259 2,700 1,684 Climbing Chicago TRACON
Sat 08:05:00 PM 41.9236 -88.3821 255° West  Level FlightAware
Sat 08:05:18 PM 42.0833 -88.0000 304° West 272 313 5,000  Level Chicago TRACON
Sat 08:06:00 PM 41.9076 -88.5442 261° West  Level FlightAware
Sat 08:06:54 PM 42.0578 -88.1497 257° West 271 312 9,400  Level Chicago Center
Sat 08:07:00 PM 41.8885 -88.7064 261° West  Level FlightAware
Sat 08:07:55 PM 42.0247 -88.2708 250° West 283 326 12,600  Level Chicago Center
Sat 08:08:00 PM 41.8698 -88.8687 261° West  Level FlightAware
Sat 08:08:57 PM 41.9931 -88.3817 249° West 307 353 13,500  Level Chicago Center
Sat 08:09:58 PM 41.9553 -88.5128 249° West 367 422 15,300 1,869 Climbing Chicago Center
Sat 08:10:59 PM 41.9186 -88.6481 250° West 385 443 17,300 1,854 Climbing Chicago Center
Sat 08:12:01 PM 41.8978 -88.7928 259° West 397 457 19,100 1,805 Climbing Chicago Center
Sat 08:13:02 PM 41.8750 -88.9375 258° West 400 460 21,000 1,967 Climbing Chicago Center
Sat 08:14:03 PM 41.8486 -89.1153 259° West 409 471 23,100 1,756 Climbing Chicago Center
Sat 08:15:05 PM 41.8278 -89.2658 260° West 415 478 24,600 1,317 Climbing Chicago Center
Sat 08:16:06 PM 41.8153 -89.4200 264° West 418 481 25,800 1,131 Climbing Chicago Center
Sat 08:17:07 PM 41.7992 -89.5869 263° West 427 491 26,900 927 Climbing Chicago Center
Sat 08:18:09 PM 41.7853 -89.7506 264° West 439 505 27,700 878 Climbing Chicago Center
Sat 08:19:10 PM 41.7700 -89.9158 263° West 447 514 28,700 885 Climbing Chicago Center
Sat 08:20:11 PM 41.7556 -90.0850 264° West 456 525 29,500 1,033 Climbing Chicago Center
Sat 08:21:12 PM 41.7386 -90.2553 262° West 463 533 30,800 1,279 Climbing Chicago Center
Sat 08:22:13 PM 41.7211 -90.4286 262° West 468 539 32,100 1,122 Climbing Chicago Center
Sat 08:23:15 PM 41.7050 -90.5925 263° West 451 519 33,100 878 Climbing Chicago Center
Sat 08:24:16 PM 41.6886 -90.7614 263° West 449 517 33,900 443 Climbing Chicago Center
Sat 08:25:17 PM 41.6711 -90.9239 262° West 445 512 34,000 49 Climbing Chicago Center
Sat 08:26:18 PM 41.6547 -91.0850 262° West 441 507 34,000  Level Chicago Center
Sat 08:27:19 PM 41.6383 -91.2481 262° West 443 510 34,000  Level Chicago Center
Sat 08:28:21 PM 41.6167 -91.4456 262° West 449 517 34,000  Level Chicago Center
Sat 08:29:22 PM 41.5994 -91.6083 262° West 447 514 34,000  Level Chicago Center
Sat 08:30:23 PM 41.5817 -91.7714 262° West 447 514 34,000  Level Chicago Center
Sat 08:31:24 PM 41.5642 -91.9339 262° West 445 512 34,000  Level Chicago Center
Sat 08:32:25 PM 41.5453 -92.0956 261° West 445 512 34,000  Level Chicago Center
Sat 08:33:26 PM 41.5267 -92.2586 261° West 446 513 34,000  Level Chicago Center
Sat 08:34:28 PM 41.5083 -92.4253 262° West 453 521 34,000  Level Chicago Center
Sat 08:35:29 PM 41.4872 -92.6047 261° West 456 525 34,000  Level Chicago Center
Sat 08:36:30 PM 41.4683 -92.7672 261° West 450 518 34,000  Level Chicago Center
Sat 08:37:31 PM 41.4486 -92.9306 261° West 451 519 34,000  Level Chicago Center
Sat 08:38:32 PM 41.4283 -93.0922 261° West 448 516 34,000  Level Chicago Center
Sat 08:39:33 PM 41.4047 -93.2889 261° West 452 520 34,000  Level Chicago Center
Sat 08:40:43 PM 41.3842 -93.4547 261° West 453 521 34,000  Level Minneapolis Center
Sat 08:41:44 PM 41.3603 -93.6483 261° West 448 516 34,000  Level Minneapolis Center
Sat 08:42:46 PM 41.3397 -93.8136 261° West 455 524 34,000  Level Minneapolis Center
Sat 08:43:47 PM 41.3239 -93.9461 261° West 458 527 34,000  Level Minneapolis Center
Sat 08:44:48 PM 41.3022 -94.1094 260° West 455 524 34,000  Level Minneapolis Center
Sat 08:45:50 PM 41.2736 -94.3197 260° West 453 521 34,000  Level Minneapolis Center
Sat 08:46:52 PM 41.2519 -94.4831 260° West 451 519 34,000  Level Minneapolis Center
Sat 08:47:53 PM 41.2294 -94.6458 260° West 449 517 34,000  Level Minneapolis Center
Sat 08:48:54 PM 41.2083 -94.8069 260° West 446 513 34,000  Level Minneapolis Center
Sat 08:49:56 PM 41.1856 -94.9708 260° West 447 514 34,000  Level Minneapolis Center
Sat 08:50:57 PM 41.1622 -95.1336 259° West 448 516 34,000  Level Minneapolis Center
Sat 08:51:59 PM 41.1386 -95.2969 259° West 449 517 34,000  Level Minneapolis Center
Sat 08:53:12 PM 41.1111 -95.4914 259° West 446 513 34,000  Level Minneapolis Center
Sat 08:54:14 PM 41.0825 -95.6850 259° West 443 510 34,000  Level Minneapolis Center
Sat 08:55:15 PM 41.0578 -95.8467 259° West 443 510 34,000  Level Minneapolis Center
Sat 08:56:17 PM 41.0350 -96.0075 259° West 441 507 34,000  Level Minneapolis Center
Sat 08:57:18 PM 41.0106 -96.1675 259° West 439 505 34,000  Level Minneapolis Center
Sat 08:58:19 PM 40.9875 -96.3269 259° West 438 504 34,000  Level Minneapolis Center
Sat 08:59:21 PM 40.9631 -96.4853 258° West 439 505 34,000  Level Minneapolis Center
Sat 09:00:22 PM 40.9389 -96.6419 259° West 436 502 34,000  Level Minneapolis Center
Sat 09:01:23 PM 40.9092 -96.7992 256° West 438 504 34,000  Level Minneapolis Center
Sat 09:02:25 PM 40.8647 -96.9511 249° West 441 507 34,000  Level Minneapolis Center
Sat 09:03:26 PM 40.8200 -97.1033 249° West 443 510 34,000  Level Minneapolis Center
Sat 09:04:28 PM 40.7772 -97.2556 250° West 443 510 34,000  Level Minneapolis Center
Sat 09:05:29 PM 40.7267 -97.4300 249° West 441 507 34,000  Level Minneapolis Center
Sat 09:06:30 PM 40.6822 -97.5808 249° West 442 509 34,000  Level Minneapolis Center
Sat 09:07:32 PM 40.6386 -97.7325 249° West 441 507 34,000  Level Minneapolis Center
Sat 09:08:33 PM 40.5936 -97.8850 249° West 443 510 34,000  Level Minneapolis Center
Sat 09:09:34 PM 40.5486 -98.0378 249° West 445 512 34,000  Level Minneapolis Center
Sat 09:10:36 PM 40.5033 -98.1889 249° West 444 511 34,000  Level Minneapolis Center
Sat 09:11:37 PM 40.4583 -98.3400 249° West 443 510 34,000  Level Minneapolis Center
Sat 09:12:38 PM 40.4131 -98.4897 248° West 441 507 34,000  Level Minneapolis Center
Sat 09:13:39 PM 40.3681 -98.6408 249° West 441 507 34,000  Level Minneapolis Center
Sat 09:14:41 PM 40.3225 -98.7903 248° West 441 507 34,000  Level Minneapolis Center
Sat 09:15:42 PM 40.2683 -98.9694 248° West 440 506 34,000  Level Minneapolis Center
Sat 09:16:03 PM 40.2589 -98.9972 246° West 437 503 34,000  Level Denver Center
Sat 09:17:04 PM 40.2131 -99.1456 248° West 438 504 34,000  Level Denver Center
Sat 09:18:06 PM 40.1658 -99.2953 248° West 443 510 34,000  Level Denver Center
Sat 09:19:07 PM 40.1108 -99.4753 248° West 445 512 34,000  Level Denver Center
Sat 09:20:09 PM 40.0639 -99.6244 248° West 445 512 34,000  Level Denver Center
Sat 09:21:10 PM 40.0158 -99.7742 247° West 447 514 34,000  Level Denver Center
Sat 09:22:11 PM 39.9683 -99.9250 248° West 446 513 34,000  Level Denver Center
Sat 09:23:13 PM 39.9203 -100.0742 247° West 447 514 34,000  Level Denver Center
Sat 09:24:14 PM 39.8717 -100.2239 247° West 448 516 34,000  Level Denver Center
Sat 09:25:16 PM 39.8233 -100.3769 248° West 448 516 34,000  Level Denver Center
Sat 09:26:17 PM 39.7686 -100.5439 247° West 449 517 34,000  Level Denver Center
Sat 09:27:18 PM 39.7219 -100.6861 247° West 447 514 34,000  Level Denver Center
Sat 09:28:20 PM 39.6758 -100.8281 247° West 445 512 34,000  Level Denver Center
Sat 09:29:21 PM 39.6211 -100.9939 247° West 447 514 34,000  Level Denver Center
Sat 09:30:23 PM 39.5739 -101.1342 246° West 445 512 34,000  Level Denver Center
Sat 09:31:24 PM 39.5269 -101.2794 247° West 453 521 34,000  Level Denver Center
Sat 09:32:26 PM 39.4717 -101.4439 247° West 447 514 34,000  Level Denver Center
Sat 09:33:27 PM 39.4239 -101.5836 246° West 445 512 34,000  Level Denver Center
Sat 09:34:29 PM 39.3681 -101.7481 246° West 446 513 34,000  Level Denver Center
Sat 09:35:30 PM 39.3175 -101.8808 244° Southwest 450 518 34,000  Level Denver Center
Sat 09:36:32 PM 39.2572 -102.0419 244° Southwest 447 514 34,000  Level Denver Center
Sat 09:37:33 PM 39.2056 -102.1794 244° Southwest 447 514 34,000  Level Denver Center
Sat 09:38:34 PM 39.1436 -102.3408 244° Southwest 448 516 34,000  Level Denver Center
Sat 09:39:36 PM 39.0908 -102.4800 244° Southwest 452 520 34,000  Level Denver Center
Sat 09:40:37 PM 39.0400 -102.6169 244° Southwest 448 516 34,000  Level Denver Center
Sat 09:41:39 PM 38.9806 -102.7706 244° Southwest 446 513 34,000  Level Denver Center
Sat 09:42:40 PM 38.9244 -102.9158 244° Southwest 448 516 34,000  Level Denver Center
Sat 09:43:41 PM 38.8678 -103.0617 244° Southwest 452 520 34,000  Level Denver Center
Sat 09:44:55 PM 38.7936 -103.2539 244° Southwest 448 516 34,000  Level Denver Center
Sat 09:45:56 PM 38.7367 -103.3994 243° Southwest 450 518 34,000  Level Denver Center
Sat 09:46:58 PM 38.6836 -103.5353 243° Southwest 452 520 34,000  Level Denver Center
Sat 09:47:59 PM 38.6294 -103.6711 243° Southwest 448 516 34,000  Level Denver Center
Sat 09:49:00 PM 38.5661 -103.8297 243° Southwest 450 518 34,000  Level Denver Center
Sat 09:50:02 PM 38.5131 -103.9647 243° Southwest 447 514 34,000  Level Denver Center
Sat 09:51:03 PM 38.4517 -104.1183 243° Southwest 445 512 34,000  Level Denver Center
Sat 09:52:04 PM 38.3931 -104.2628 243° Southwest 451 519 34,000  Level Denver Center
Sat 09:53:05 PM 38.3306 -104.4164 243° Southwest 452 520 34,000  Level Denver Center
Sat 09:54:07 PM 38.2756 -104.5508 243° Southwest 449 517 34,000  Level Denver Center
Sat 09:55:08 PM 38.2186 -104.6922 243° Southwest 449 517 34,000  Level Denver Center
Sat 09:56:09 PM 38.1569 -104.8419 242° Southwest 449 517 34,000  Level Denver Center
Sat 09:57:10 PM 38.1022 -104.9767 243° Southwest 449 517 34,000  Level Denver Center
Sat 09:58:12 PM 38.0369 -105.1311 242° Southwest 447 514 34,000  Level Denver Center
Sat 09:59:13 PM 37.9819 -105.2642 242° Southwest 446 513 34,000  Level Denver Center
Sat 10:00:14 PM 37.9258 -105.3986 242° Southwest 449 517 34,000  Level Denver Center
Sat 10:01:15 PM 37.8608 -105.5542 242° Southwest 450 518 34,000  Level Denver Center
Sat 10:02:17 PM 37.8053 -105.6872 242° Southwest 448 516 34,000  Level Denver Center
Sat 10:03:18 PM 37.7494 -105.8211 242° Southwest 450 518 34,000  Level Denver Center
Sat 10:04:19 PM 37.6825 -105.9750 241° Southwest 448 516 34,000  Level Denver Center
Sat 10:05:20 PM 37.6258 -106.1061 241° Southwest 446 513 34,000  Level Denver Center
Sat 10:06:21 PM 37.5683 -106.2433 242° Southwest 443 510 34,000  Level Denver Center
Sat 10:07:22 PM 37.5025 -106.3958 241° Southwest 442 509 34,000  Level Denver Center
Sat 10:08:23 PM 37.4561 -106.5042 242° Southwest 441 507 34,000  Level Denver Center
Sat 10:09:24 PM 37.3900 -106.6544 241° Southwest 440 506 34,000  Level Denver Center
Sat 10:10:25 PM 37.3247 -106.8050 241° Southwest 439 505 34,000  Level Denver Center
Sat 10:11:27 PM 37.2686 -106.9342 241° Southwest 440 506 34,000  Level Denver Center
Sat 10:12:28 PM 37.2031 -107.0836 241° Southwest 439 505 34,000  Level Denver Center
Sat 10:13:29 PM 37.1461 -107.2114 241° Southwest 436 502 34,000  Level Denver Center
Sat 10:14:30 PM 37.0978 -107.3444 246° West 438 504 34,000  Level Denver Center
Sat 10:15:31 PM 37.0414 -107.4997 246° West 439 505 34,000  Level Denver Center
Sat 10:16:32 PM 36.9925 -107.6297 245° Southwest 434 499 34,000  Level Denver Center
Sat 10:17:33 PM 36.9442 -107.7658 246° West 444 511 34,000  Level Denver Center
Sat 10:18:34 PM 36.8872 -107.9192 245° Southwest 437 503 34,000  Level Denver Center
Sat 10:19:35 PM 36.8378 -108.0528 245° Southwest 441 507 34,000  Level Denver Center
Sat 10:20:36 PM 36.7878 -108.1875 245° Southwest 446 513 34,000 49 Level Denver Center
Sat 10:21:37 PM 36.7283 -108.3442 245° Southwest 448 516 34,100  Climbing Denver Center
Sat 10:22:38 PM 36.6789 -108.4778 245° Southwest 445 512 34,000 -49 Descending Denver Center
Sat 10:23:39 PM 36.6203 -108.6325 245° Southwest 443 510 34,000  Level Denver Center
Sat 10:24:40 PM 36.5700 -108.7642 245° Southwest 442 509 34,000  Level Denver Center
Sat 10:25:41 PM 36.5206 -108.8958 245° Southwest 442 509 34,000  Level Denver Center
Sat 10:26:42 PM 36.4619 -109.0478 244° Southwest 439 505 34,000  Level Denver Center
Sat 10:27:43 PM 36.4119 -109.1783 245° Southwest 441 507 34,000  Level Denver Center
Sat 10:28:44 PM 36.3531 -109.3297 244° Southwest 440 506 34,000  Level Denver Center
Sat 10:29:45 PM 36.3033 -109.4597 245° Southwest 439 505 34,000  Level Denver Center
Sat 10:30:46 PM 36.2517 -109.5881 244° Southwest 437 503 34,000  Level Denver Center
Sat 10:31:47 PM 36.1928 -109.7394 244° Southwest 438 504 34,000  Level Denver Center
Sat 10:32:48 PM 36.1422 -109.8692 244° Southwest 439 505 34,000  Level Denver Center
Sat 10:33:49 PM 36.0900 -109.9981 243° Southwest 437 503 34,000  Level Denver Center
Sat 10:34:50 PM 36.0358 -110.1383 245° Southwest 439 505 34,000  Level Denver Center
Sat 10:35:51 PM 35.9817 -110.2736 244° Southwest 440 506 34,000  Level Denver Center
Sat 10:36:52 PM 35.9283 -110.4075 244° Southwest 437 503 34,000  Level Denver Center
Sat 10:37:52 PM 35.8731 -110.5419 243° Southwest 438 504 34,000  Level Denver Center
Sat 10:38:33 PM 35.8303 -110.6431 242° Southwest 437 503 34,000  Level Albuquerque Center
Sat 10:39:34 PM 35.7694 -110.7933 244° Southwest 439 505 34,000  Level Albuquerque Center
Sat 10:40:35 PM 35.7175 -110.9208 243° Southwest 437 503 34,000  Level Albuquerque Center
Sat 10:41:36 PM 35.6642 -111.0475 243° Southwest 436 502 34,000  Level Albuquerque Center
Sat 10:42:36 PM 35.6072 -111.1983 245° Southwest 435 501 34,000  Level Albuquerque Center
Sat 10:43:37 PM 35.5542 -111.3242 243° Southwest 435 501 34,000  Level Albuquerque Center
Sat 10:44:38 PM 35.5036 -111.4483 243° Southwest 438 504 34,000  Level Albuquerque Center
Sat 10:45:39 PM 35.4489 -111.5817 243° Southwest 442 509 34,000  Level Albuquerque Center
Sat 10:46:39 PM 35.3939 -111.7117 243° Southwest 434 499 34,000  Level Albuquerque Center
Sat 10:47:40 PM 35.3397 -111.8436 243° Southwest 434 499 34,000  Level Albuquerque Center
Sat 10:48:41 PM 35.2844 -111.9736 243° Southwest 434 499 34,000  Level Albuquerque Center
Sat 10:49:42 PM 35.2303 -112.1050 243° Southwest 433 498 34,000  Level Albuquerque Center
Sat 10:50:43 PM 35.1753 -112.2350 243° Southwest 432 497 34,000  Level Albuquerque Center
Sat 10:51:43 PM 35.1086 -112.3922 243° Southwest 434 499 34,000  Level Albuquerque Center
Sat 10:52:44 PM 35.0536 -112.5219 243° Southwest 431 496 34,000  Level Albuquerque Center
Sat 10:53:45 PM 34.9972 -112.6533 242° Southwest 434 499 34,000  Level Albuquerque Center
Sat 10:54:46 PM 34.9411 -112.7847 243° Southwest 435 501 34,000  Level Albuquerque Center
Sat 10:55:46 PM 34.8844 -112.9161 242° Southwest 436 502 34,000  Level Albuquerque Center
Sat 10:56:47 PM 34.8275 -113.0464 242° Southwest 436 502 34,000  Level Albuquerque Center
Sat 10:57:48 PM 34.7711 -113.1761 242° Southwest 436 502 34,000  Level Albuquerque Center
Sat 10:58:49 PM 34.7144 -113.3069 242° Southwest 437 503 34,000  Level Albuquerque Center
Sat 10:59:49 PM 34.6583 -113.4369 242° Southwest 437 503 34,000  Level Albuquerque Center
Sat 11:00:50 PM 34.6022 -113.5664 242° Southwest 436 502 34,000  Level Albuquerque Center
Sat 11:01:51 PM 34.5428 -113.6967 241° Southwest 435 501 34,000  Level Albuquerque Center
Sat 11:02:52 PM 34.4869 -113.8242 242° Southwest 432 497 34,000  Level Albuquerque Center
Sat 11:03:52 PM 34.4278 -113.9564 242° Southwest 436 502 34,000  Level Albuquerque Center
Sat 11:04:53 PM 34.3703 -114.0853 242° Southwest 435 501 34,000  Level Albuquerque Center
Sat 11:05:54 PM 34.3114 -114.2144 241° Southwest 435 501 34,000  Level Albuquerque Center
Sat 11:06:55 PM 34.2544 -114.3442 242° Southwest 437 503 34,000  Level Albuquerque Center
Sat 11:07:29 PM 34.2206 -114.4206 242° Southwest 438 504 34,000 -63 Level Los Center
Sat 11:08:31 PM 34.1622 -114.5478 241° Southwest 437 503 33,900 -49 Descending Los Center
Sat 11:09:32 PM 34.1053 -114.6742 241° Southwest 434 499 33,900 49 Level Los Center
Sat 11:10:33 PM 34.0483 -114.8033 242° Southwest 437 503 34,000 49 Climbing Los Center
Sat 11:11:34 PM 33.9808 -114.9564 242° Southwest 431 496 34,000  Level Los Center
Sat 11:12:35 PM 33.9242 -115.0847 242° Southwest 434 499 34,000  Level Los Center
Sat 11:13:36 PM 33.8678 -115.2125 242° Southwest 433 498 34,000 -780 Level Los Center
Sat 11:14:38 PM 33.8108 -115.3403 242° Southwest 435 501 32,400 -1,854 Descending Los Center
Sat 11:15:39 PM 33.7539 -115.4675 242° Southwest 434 499 30,200 -2,115 Descending Los Center
Sat 11:16:40 PM 33.6967 -115.5925 241° Southwest 430 495 28,100 -2,115 Descending Los Center
Sat 11:17:41 PM 33.6383 -115.7197 241° Southwest 434 499 25,900 -2,016 Descending Los Center
Sat 11:18:42 PM 33.5767 -115.8392 238° Southwest 425 489 24,000 -1,561 Descending Los Center
Sat 11:19:44 PM 33.4939 -115.9375 225° Southwest 419 482 22,700 -1,805 Descending Los Center
Sat 11:20:45 PM 33.3889 -116.0458 221° Southwest 416 479 20,300 -2,213 Descending Los Center
Sat 11:21:46 PM 33.3044 -116.1342 221° Southwest 409 471 18,200 -2,066 Descending Los Center
Sat 11:22:47 PM 33.2217 -116.2197 221° Southwest 399 459 16,100 -1,967 Descending Los Center
Sat 11:23:48 PM 33.1417 -116.3025 221° Southwest 387 445 14,200 -1,366 Descending Los Center
Sat 11:24:50 PM 33.0664 -116.3817 221° Southwest 371 427 13,300 -976 Descending Los Center
Sat 11:25:51 PM 32.9922 -116.4519 218° Southwest 355 409 12,200 -1,328 Descending Los Center
Sat 11:26:52 PM 32.9081 -116.4997 205° Southwest 338 389 10,600 -1,279 Descending Los Center
Sat 11:27:53 PM 32.8272 -116.5669 215° Southwest 323 372 9,600 -1,131 Descending Los Center
Sat 11:28:54 PM 32.7875 -116.6503 240° Southwest 298 343 8,300 -1,268 Descending Los Center
Sat 11:29:56 PM 32.7472 -116.7336 240° Southwest 294 338 7,000 -1,122 Descending Los Center
Sat 11:30:57 PM 32.7094 -116.8139 241° Southwest 285 328 6,000 -836 Descending Los Center
Sat 11:31:58 PM 32.6822 -116.8986 249° West 279 321 5,300 -733 Descending Los Center
Sat 11:32:27 PM 32.6667 -116.9333 242° Southwest 239 275 4,900 -1,146 Descending Southern TRACON
Sat 11:33:27 PM 32.6833 -117.0000 287° West 178 205 3,600 -1,300 Descending Southern TRACON
Sat 11:34:27 PM 32.7000 -117.0500 292° West 169 194 2,300 -1,300 Descending Southern TRACON

Login

Don't have an account? Register now (free) for customized features, flight alerts, and more!